Wetterstation Vordersexau
Wetterdaten: Woche 10.04.17 - 16.04.17 (KW15)
Datum Zeit Temp. A. Feuchte A. Luftdruck Regen Wind Richtung Taupunkt Windchill Windben
10.04.2017 00:00 11,0 C 68 % 1018,9 hPa 0,0 l/m 0,0 km/h O 5,3 C 11,0 C 0,0 km/h
10.04.2017 01:00 9,9 C 72 % 1019,0 hPa 0,0 l/m 0,0 km/h O-SO 5,1 C 9,9 C 0,0 km/h
10.04.2017 02:00 10,1 C 72 % 1018,7 hPa 0,0 l/m 0,0 km/h SO 5,3 C 10,1 C 0,0 km/h
10.04.2017 03:00 7,9 C 75 % 1018,7 hPa 0,0 l/m 0,0 km/h SO 3,7 C 7,9 C 0,0 km/h
10.04.2017 04:00 7,1 C 79 % 1018,5 hPa 0,0 l/m 0,0 km/h O-SO 3,7 C 7,1 C 0,0 km/h
10.04.2017 05:00 7,4 C 81 % 1017,9 hPa 0,0 l/m 0,6 km/h O-SO 4,4 C 7,4 C 0,4 km/h
10.04.2017 06:00 7,5 C 80 % 1017,8 hPa 0,0 l/m 0,0 km/h SO 4,3 C 7,5 C 0,0 km/h
10.04.2017 07:00 7,5 C 81 % 1017,7 hPa 0,0 l/m 9,1 km/h O-SO 4,5 C 5,4 C 5,0 km/h
10.04.2017 08:00 9,1 C 81 % 1017,9 hPa 0,0 l/m 0,0 km/h O-SO 6,0 C 9,1 C 0,0 km/h
10.04.2017 09:00 16,1 C 71 % 1018,2 hPa 0,0 l/m 0,0 km/h SW 10,8 C 16,1 C 0,0 km/h
10.04.2017 10:00 22,6 C 43 % 1018,1 hPa 0,0 l/m 20,1 km/h S 9,4 C 19,5 C 11,2 km/h
10.04.2017 11:00 24,2 C 41 % 1018,2 hPa 0,0 l/m 0,0 km/h W-SW 10,1 C 24,2 C 0,0 km/h
10.04.2017 12:00 24,4 C 42 % 1017,7 hPa 0,0 l/m 12,3 km/h S-SW 10,6 C 23,0 C 6,8 km/h
10.04.2017 13:00 26,3 C 38 % 1017,1 hPa 0,0 l/m 6,5 km/h W 10,8 C 26,3 C 3,6 km/h
10.04.2017 14:00 26,8 C 35 % 1016,4 hPa 0,0 l/m 24,6 km/h NW 10,0 C 24,6 C 13,7 km/h
10.04.2017 15:00 26,3 C 34 % 1015,7 hPa 0,0 l/m 0,0 km/h W 9,2 C 26,3 C 0,0 km/h
10.04.2017 16:00 26,1 C 32 % 1015,0 hPa 0,0 l/m 20,7 km/h W 8,1 C 24,0 C 11,5 km/h
10.04.2017 17:00 27,3 C 30 % 1014,5 hPa 0,0 l/m 10,4 km/h W-NW 8,2 C 26,6 C 5,8 km/h
10.04.2017 18:00 27,1 C 30 % 1014,4 hPa 0,0 l/m 0,0 km/h N 8,0 C 27,1 C 0,0 km/h
10.04.2017 19:00 25,6 C 39 % 1015,0 hPa 0,0 l/m 3,2 km/h N 10,6 C 25,6 C 1,8 km/h
10.04.2017 20:00 19,1 C 47 % 1016,1 hPa 0,0 l/m 6,5 km/h N-NO 7,5 C 19,1 C 3,6 km/h
10.04.2017 21:00 16,8 C 52 % 1017,8 hPa 0,0 l/m 12,3 km/h N 6,9 C 14,2 C 6,8 km/h
10.04.2017 22:00 14,9 C 55 % 1018,6 hPa 0,0 l/m 0,6 km/h N-NO 5,9 C 14,9 C 0,4 km/h
10.04.2017 23:00 13,1 C 59 % 1019,4 hPa 0,0 l/m 0,0 km/h N-NO 5,3 C 13,1 C 0,0 km/h
11.04.2017 00:00 12,6 C 60 % 1019,6 hPa 0,0 l/m 0,0 km/h N-NO 5,0 C 12,6 C 0,0 km/h
11.04.2017 01:00 10,9 C 61 % 1019,8 hPa 0,0 l/m 0,6 km/h N-NW 3,7 C 10,9 C 0,4 km/h
11.04.2017 02:00 10,5 C 65 % 1020,1 hPa 0,0 l/m 0,0 km/h N 4,2 C 10,5 C 0,0 km/h
11.04.2017 03:00 10,4 C 66 % 1020,2 hPa 0,0 l/m 0,0 km/h N 4,3 C 10,4 C 0,0 km/h
11.04.2017 04:00 9,6 C 69 % 1020,3 hPa 0,0 l/m 0,0 km/h N 4,2 C 9,6 C 0,0 km/h
11.04.2017 05:00 8,8 C 69 % 1020,5 hPa 0,0 l/m 0,0 km/h O-NO 3,4 C 8,8 C 0,0 km/h
11.04.2017 06:00 5,3 C 74 % 1020,7 hPa 0,0 l/m 0,0 km/h O-NO 1,0 C 5,3 C 0,0 km/h
11.04.2017 07:00 4,1 C 78 % 1020,8 hPa 0,0 l/m 0,0 km/h O-NO 0,6 C 4,1 C 0,0 km/h
11.04.2017 08:00 6,4 C 81 % 1021,5 hPa 0,0 l/m 0,0 km/h NO 3,4 C 6,4 C 0,0 km/h
11.04.2017 09:00 8,9 C 78 % 1022,1 hPa 0,0 l/m 0,0 km/h W-NW 5,3 C 8,9 C 0,0 km/h
11.04.2017 10:00 12,9 C 66 % 1022,2 hPa 0,0 l/m 0,0 km/h W 6,7 C 12,9 C 0,0 km/h
11.04.2017 11:00 16,1 C 54 % 1022,7 hPa 0,0 l/m 1,9 km/h W 6,8 C 16,1 C 1,1 km/h
11.04.2017 12:00 16,0 C 51 % 1022,6 hPa 0,0 l/m 3,9 km/h N 5,9 C 16,0 C 2,2 km/h
11.04.2017 13:00 18,3 C 45 % 1022,3 hPa 0,0 l/m 7,8 km/h N 6,2 C 17,7 C 4,3 km/h
11.04.2017 14:00 19,1 C 42 % 1021,7 hPa 0,0 l/m 0,0 km/h N 5,9 C 19,1 C 0,0 km/h
11.04.2017 15:00 19,6 C 38 % 1021,7 hPa 0,0 l/m 3,9 km/h N 4,9 C 19,6 C 2,2 km/h
11.04.2017 16:00 19,3 C 36 % 1021,2 hPa 0,0 l/m 9,7 km/h N 3,9 C 18,0 C 5,4 km/h
11.04.2017 17:00 21,9 C 29 % 1021,0 hPa 0,0 l/m 16,2 km/h N 3,1 C 19,3 C 9,0 km/h
11.04.2017 18:00 23,1 C 27 % 1021,0 hPa 0,0 l/m 0,6 km/h NW 3,1 C 23,1 C 0,4 km/h
11.04.2017 19:00 22,0 C 28 % 1020,7 hPa 0,0 l/m 3,9 km/h N 2,7 C 22,0 C 2,2 km/h
11.04.2017 20:00 13,9 C 38 % 1021,3 hPa 0,0 l/m 0,0 km/h N -0,2 C 13,9 C 0,0 km/h
11.04.2017 21:00 8,1 C 53 % 1021,7 hPa 0,0 l/m 0,0 km/h N-NO -0,9 C 8,1 C 0,0 km/h
11.04.2017 22:00 6,3 C 62 % 1021,9 hPa 0,0 l/m 0,0 km/h N-NO -0,4 C 6,3 C 0,0 km/h
11.04.2017 23:00 5,1 C 68 % 1021,7 hPa 0,0 l/m 0,0 km/h N-NO -0,3 C 5,1 C 0,0 km/h
12.04.2017 00:00 4,2 C 70 % 1021,6 hPa 0,0 l/m 0,0 km/h N-NO -0,8 C 4,2 C 0,0 km/h
12.04.2017 01:00 3,3 C 74 % 1021,4 hPa 0,0 l/m 0,0 km/h N-NO -0,9 C 3,3 C 0,0 km/h
12.04.2017 02:00 2,8 C 77 % 1021,2 hPa 0,0 l/m 0,0 km/h N-NO -0,8 C 2,8 C 0,0 km/h
12.04.2017 03:00 1,9 C 78 % 1020,7 hPa 0,0 l/m 0,0 km/h N-NO -1,5 C 1,9 C 0,0 km/h
12.04.2017 04:00 1,8 C 80 % 1020,3 hPa 0,0 l/m 0,0 km/h N-NO -1,3 C 1,8 C 0,0 km/h
12.04.2017 05:00 2,1 C 81 % 1020,0 hPa 0,0 l/m 0,0 km/h O-NO -0,8 C 2,1 C 0,0 km/h
12.04.2017 06:00 1,9 C 81 % 1019,8 hPa 0,0 l/m 0,0 km/h N-NO -1,0 C 1,9 C 0,0 km/h
12.04.2017 07:00 1,0 C 82 % 1019,7 hPa 0,0 l/m 0,0 km/h NO -1,7 C 1,0 C 0,0 km/h
12.04.2017 08:00 2,2 C 82 % 1019,9 hPa 0,0 l/m 0,0 km/h SO -0,5 C 2,2 C 0,0 km/h
12.04.2017 09:00 11,8 C 71 % 1019,8 hPa 0,0 l/m 0,0 km/h SW 6,7 C 11,8 C 0,0 km/h
12.04.2017 10:00 17,5 C 47 % 1019,3 hPa 0,0 l/m 0,0 km/h N-NO 6,1 C 17,5 C 0,0 km/h
12.04.2017 11:00 19,3 C 42 % 1018,6 hPa 0,0 l/m 0,0 km/h W-SW 6,1 C 19,3 C 0,0 km/h
12.04.2017 12:00 21,5 C 38 % 1017,7 hPa 0,0 l/m 0,6 km/h S-SO 6,6 C 21,5 C 0,4 km/h
12.04.2017 13:00 22,5 C 36 % 1016,4 hPa 0,0 l/m 0,6 km/h SW 6,7 C 22,5 C 0,4 km/h
12.04.2017 14:00 23,6 C 33 % 1015,3 hPa 0,0 l/m 0,6 km/h W 6,4 C 23,6 C 0,4 km/h
12.04.2017 15:00 24,2 C 33 % 1014,6 hPa 0,0 l/m 3,2 km/h W 6,9 C 24,2 C 1,8 km/h
12.04.2017 16:00 26,1 C 28 % 1013,3 hPa 0,0 l/m 0,0 km/h W 6,2 C 26,1 C 0,0 km/h
12.04.2017 17:00 26,5 C 26 % 1012,7 hPa 0,0 l/m 13,6 km/h W-SW 5,4 C 25,3 C 7,6 km/h
12.04.2017 18:00 19,2 C 33 % 1012,2 hPa 0,0 l/m 0,0 km/h W 2,5 C 19,2 C 0,0 km/h
12.04.2017 19:00 17,3 C 37 % 1012,4 hPa 0,0 l/m 7,1 km/h W 2,5 C 17,0 C 4,0 km/h
12.04.2017 20:00 14,9 C 43 % 1013,0 hPa 0,0 l/m 0,6 km/h W-SW 2,4 C 14,9 C 0,4 km/h
12.04.2017 21:00 14,4 C 46 % 1013,1 hPa 0,0 l/m 0,0 km/h W-SW 2,9 C 14,4 C 0,0 km/h
12.04.2017 22:00 14,1 C 49 % 1013,2 hPa 0,0 l/m 0,0 km/h N 3,6 C 14,1 C 0,0 km/h
12.04.2017 23:00 11,4 C 57 % 1013,5 hPa 0,0 l/m 0,0 km/h N 3,2 C 11,4 C 0,0 km/h
13.04.2017 00:00 8,8 C 67 % 1013,4 hPa 0,0 l/m 0,0 km/h N 3,0 C 8,8 C 0,0 km/h
13.04.2017 01:00 7,9 C 71 % 1013,3 hPa 0,0 l/m 0,0 km/h N 3,0 C 7,9 C 0,0 km/h
13.04.2017 02:00 6,8 C 76 % 1012,8 hPa 0,0 l/m 0,0 km/h N 2,9 C 6,8 C 0,0 km/h
13.04.2017 03:00 6,2 C 79 % 1012,8 hPa 0,0 l/m 0,0 km/h N 2,8 C 6,2 C 0,0 km/h
13.04.2017 04:00 7,1 C 81 % 1012,9 hPa 0,0 l/m 0,0 km/h NO 4,1 C 7,1 C 0,0 km/h
13.04.2017 05:00 7,9 C 79 % 1013,2 hPa 0,0 l/m 0,0 km/h S-SW 4,5 C 7,9 C 0,0 km/h
13.04.2017 06:00 8,8 C 78 % 1013,2 hPa 0,0 l/m 0,0 km/h S-SW 5,2 C 8,8 C 0,0 km/h
13.04.2017 07:00 9,8 C 74 % 1014,0 hPa 0,0 l/m 0,0 km/h W 5,4 C 9,8 C 0,0 km/h
13.04.2017 08:00 12,6 C 65 % 1014,6 hPa 0,0 l/m 1,3 km/h W-NW 6,2 C 12,6 C 0,7 km/h
13.04.2017 09:00 14,2 C 62 % 1014,9 hPa 0,0 l/m 0,0 km/h SW 7,0 C 14,2 C 0,0 km/h
13.04.2017 10:00 18,8 C 50 % 1014,8 hPa 0,0 l/m 3,9 km/h N 8,2 C 18,8 C 2,2 km/h
13.04.2017 11:00 18,3 C 50 % 1014,8 hPa 0,0 l/m 3,2 km/h N 7,7 C 18,3 C 1,8 km/h
13.04.2017 12:00 19,3 C 45 % 1014,5 hPa 0,0 l/m 0,0 km/h N-NO 7,1 C 19,3 C 0,0 km/h
13.04.2017 13:00 20,8 C 38 % 1013,9 hPa 0,0 l/m 0,0 km/h W 6,0 C 20,8 C 0,0 km/h
13.04.2017 14:00 21,4 C 40 % 1013,4 hPa 0,0 l/m 0,0 km/h NW 7,2 C 21,4 C 0,0 km/h
13.04.2017 15:00 22,9 C 35 % 1013,1 hPa 0,0 l/m 0,0 km/h N 6,6 C 22,9 C 0,0 km/h
13.04.2017 16:00 21,6 C 37 % 1012,6 hPa 0,0 l/m 10,4 km/h N 6,3 C 20,3 C 5,8 km/h
13.04.2017 17:00 21,8 C 38 % 1012,7 hPa 0,0 l/m 0,0 km/h NO 6,8 C 21,8 C 0,0 km/h
13.04.2017 18:00 23,3 C 34 % 1012,3 hPa 0,0 l/m 0,0 km/h N 6,6 C 23,3 C 0,0 km/h
13.04.2017 19:00 15,0 C 49 % 1012,9 hPa 0,0 l/m 0,0 km/h N 4,4 C 15,0 C 0,0 km/h
13.04.2017 20:00 11,9 C 58 % 1013,7 hPa 0,0 l/m 0,0 km/h N 3,9 C 11,9 C 0,0 km/h
13.04.2017 21:00 9,8 C 64 % 1014,1 hPa 0,0 l/m 0,0 km/h N 3,3 C 9,8 C 0,0 km/h
13.04.2017 22:00 6,5 C 71 % 1014,4 hPa 0,0 l/m 0,0 km/h N 1,6 C 6,5 C 0,0 km/h
13.04.2017 23:00 6,4 C 77 % 1014,7 hPa 0,0 l/m 0,0 km/h N 2,7 C 6,4 C 0,0 km/h
14.04.2017 00:00 8,3 C 77 % 1014,6 hPa 0,0 l/m 0,0 km/h N 4,5 C 8,3 C 0,0 km/h
14.04.2017 01:00 8,6 C 77 % 1014,3 hPa 0,0 l/m 0,0 km/h N 4,8 C 8,6 C 0,0 km/h
14.04.2017 02:00 8,7 C 77 % 1014,1 hPa 0,0 l/m 0,0 km/h N 4,9 C 8,7 C 0,0 km/h
14.04.2017 03:00 8,7 C 77 % 1014,1 hPa 0,0 l/m 0,0 km/h N 4,9 C 8,7 C 0,0 km/h
14.04.2017 04:00 8,6 C 79 % 1014,0 hPa 0,0 l/m 0,0 km/h N 5,2 C 8,6 C 0,0 km/h
14.04.2017 05:00 8,6 C 79 % 1014,1 hPa 0,0 l/m 0,0 km/h N 5,2 C 8,6 C 0,0 km/h
14.04.2017 06:00 8,4 C 80 % 1014,3 hPa 0,0 l/m 0,0 km/h N 5,2 C 8,4 C 0,0 km/h
14.04.2017 07:00 9,3 C 80 % 1014,9 hPa 0,0 l/m 0,0 km/h N 6,0 C 9,3 C 0,0 km/h
14.04.2017 08:00 11,4 C 77 % 1014,9 hPa 0,0 l/m 0,0 km/h N 7,5 C 11,4 C 0,0 km/h
14.04.2017 09:00 13,1 C 63 % 1015,2 hPa 0,0 l/m 0,0 km/h W 6,2 C 13,1 C 0,0 km/h
14.04.2017 10:00 13,2 C 58 % 1015,5 hPa 0,0 l/m 0,0 km/h N 5,1 C 13,2 C 0,0 km/h
14.04.2017 11:00 13,4 C 55 % 1015,7 hPa 0,0 l/m 0,0 km/h NW 4,5 C 13,4 C 0,0 km/h
14.04.2017 12:00 15,0 C 51 % 1015,4 hPa 0,0 l/m 0,0 km/h SO 4,9 C 15,0 C 0,0 km/h
14.04.2017 13:00 16,9 C 46 % 1015,2 hPa 0,0 l/m 0,0 km/h N-NO 5,2 C 16,9 C 0,0 km/h
14.04.2017 14:00 20,3 C 38 % 1014,7 hPa 0,0 l/m 3,2 km/h W 5,5 C 20,3 C 1,8 km/h
14.04.2017 15:00 19,9 C 37 % 1014,2 hPa 0,0 l/m 0,0 km/h S-SO 4,8 C 19,9 C 0,0 km/h
14.04.2017 16:00 20,5 C 40 % 1013,8 hPa 0,0 l/m 7,1 km/h W-SW 6,4 C 20,2 C 4,0 km/h
14.04.2017 17:00 19,0 C 36 % 1013,5 hPa 0,0 l/m 0,0 km/h W-SW 3,6 C 19,0 C 0,0 km/h
14.04.2017 18:00 14,8 C 47 % 1013,5 hPa 0,0 l/m 0,0 km/h W-SW 3,6 C 14,8 C 0,0 km/h
14.04.2017 19:00 13,7 C 50 % 1013,6 hPa 0,0 l/m 0,0 km/h W-SW 3,5 C 13,7 C 0,0 km/h
14.04.2017 20:00 12,1 C 58 % 1014,0 hPa 0,0 l/m 0,0 km/h W-SW 4,1 C 12,1 C 0,0 km/h
14.04.2017 21:00 11,3 C 62 % 1014,3 hPa 0,0 l/m 0,0 km/h W-SW 4,3 C 11,3 C 0,0 km/h
14.04.2017 22:00 10,8 C 64 % 1014,2 hPa 0,0 l/m 0,0 km/h W-SW 4,3 C 10,8 C 0,0 km/h
14.04.2017 23:00 10,1 C 65 % 1014,0 hPa 0,0 l/m 0,0 km/h W-SW 3,8 C 10,1 C 0,0 km/h
15.04.2017 00:00 9,2 C 68 % 1014,4 hPa 0,0 l/m 0,0 km/h W-SW 3,6 C 9,2 C 0,0 km/h
15.04.2017 01:00 8,7 C 70 % 1014,5 hPa 0,0 l/m 0,0 km/h W-SW 3,5 C 8,7 C 0,0 km/h
15.04.2017 02:00 6,8 C 75 % 1014,4 hPa 0,0 l/m 0,0 km/h W-SW 2,7 C 6,8 C 0,0 km/h
15.04.2017 03:00 7,8 C 77 % 1014,3 hPa 0,0 l/m 0,0 km/h SO 4,0 C 7,8 C 0,0 km/h
15.04.2017 04:00 8,4 C 76 % 1014,3 hPa 0,0 l/m 0,0 km/h SO 4,4 C 8,4 C 0,0 km/h
15.04.2017 05:00 7,6 C 77 % 1014,1 hPa 0,0 l/m 0,0 km/h SO 3,8 C 7,6 C 0,0 km/h
15.04.2017 06:00 6,2 C 79 % 1014,2 hPa 0,0 l/m 0,0 km/h SO 2,8 C 6,2 C 0,0 km/h
15.04.2017 07:00 7,3 C 81 % 1014,6 hPa 0,0 l/m 0,0 km/h SO 4,3 C 7,3 C 0,0 km/h
15.04.2017 08:00 9,8 C 79 % 1014,5 hPa 0,0 l/m 0,0 km/h SO 6,3 C 9,8 C 0,0 km/h
15.04.2017 09:00 14,0 C 68 % 1014,8 hPa 0,0 l/m 0,0 km/h N-NO 8,2 C 14,0 C 0,0 km/h
15.04.2017 10:00 16,1 C 60 % 1015,0 hPa 0,0 l/m 0,0 km/h N 8,3 C 16,1 C 0,0 km/h
15.04.2017 11:00 15,1 C 60 % 1015,3 hPa 0,0 l/m 0,0 km/h N 7,4 C 15,1 C 0,0 km/h
15.04.2017 12:00 13,9 C 66 % 1015,6 hPa 0,0 l/m 0,0 km/h O-SO 7,7 C 13,9 C 0,0 km/h
15.04.2017 13:00 14,1 C 70 % 1015,7 hPa 0,0 l/m 0,0 km/h SO 8,7 C 14,1 C 0,0 km/h
15.04.2017 14:00 13,8 C 71 % 1015,2 hPa 0,0 l/m 5,2 km/h S-SO 8,6 C 13,8 C 2,9 km/h
15.04.2017 15:00 12,9 C 73 % 1015,0 hPa 0,0 l/m 0,0 km/h S 8,2 C 12,9 C 0,0 km/h
15.04.2017 16:00 13,1 C 73 % 1014,8 hPa 0,0 l/m 0,0 km/h S 8,4 C 13,1 C 0,0 km/h
15.04.2017 17:00 13,0 C 75 % 1014,9 hPa 0,0 l/m 0,0 km/h N 8,7 C 13,0 C 0,0 km/h
15.04.2017 18:00 11,5 C 80 % 1015,4 hPa 0,0 l/m 0,0 km/h O-NO 8,2 C 11,5 C 0,0 km/h
15.04.2017 19:00 10,0 C 82 % 1015,8 hPa 0,0 l/m 0,0 km/h O-SO 7,1 C 10,0 C 0,0 km/h
15.04.2017 20:00 9,6 C 84 % 1016,2 hPa 0,0 l/m 0,0 km/h O-SO 7,0 C 9,6 C 0,0 km/h
15.04.2017 21:00 9,3 C 84 % 1016,6 hPa 0,0 l/m 0,0 km/h O-SO 6,7 C 9,3 C 0,0 km/h
15.04.2017 22:00 9,3 C 84 % 1017,1 hPa 0,0 l/m 0,0 km/h SO 6,7 C 9,3 C 0,0 km/h
15.04.2017 23:00 9,0 C 83 % 1017,1 hPa 0,0 l/m 0,0 km/h N-NO 6,3 C 9,0 C 0,0 km/h
16.04.2017 00:00 9,0 C 83 % 1017,8 hPa 0,0 l/m 0,0 km/h N-NO 6,3 C 9,0 C 0,0 km/h
16.04.2017 01:00 8,9 C 83 % 1018,2 hPa 0,0 l/m 0,0 km/h O-SO 6,2 C 8,9 C 0,0 km/h
16.04.2017 02:00 8,2 C 84 % 1017,8 hPa 0,0 l/m 0,0 km/h O-SO 5,7 C 8,2 C 0,0 km/h
16.04.2017 03:00 7,1 C 84 % 1017,5 hPa 0,0 l/m 0,0 km/h O-SO 4,6 C 7,1 C 0,0 km/h
16.04.2017 04:00 7,3 C 83 % 1017,6 hPa 0,0 l/m 0,0 km/h O-SO 4,6 C 7,3 C 0,0 km/h
16.04.2017 05:00 7,4 C 82 % 1017,8 hPa 0,0 l/m 0,0 km/h O-SO 4,5 C 7,4 C 0,0 km/h
16.04.2017 06:00 7,5 C 81 % 1018,2 hPa 0,5 l/m 0,0 km/h S-SO 4,5 C 7,5 C 0,0 km/h
16.04.2017 07:00 7,5 C 81 % 1018,5 hPa 0,0 l/m 0,0 km/h S-SO 4,5 C 7,5 C 0,0 km/h
16.04.2017 08:00 9,8 C 82 % 1018,4 hPa 0,0 l/m 0,0 km/h SW 6,9 C 9,8 C 0,0 km/h
16.04.2017 09:00 10,4 C 83 % 1018,5 hPa 0,0 l/m 0,0 km/h SW 7,6 C 10,4 C 0,0 km/h
16.04.2017 10:00 11,9 C 78 % 1018,4 hPa 0,0 l/m 0,0 km/h W 8,2 C 11,9 C 0,0 km/h
16.04.2017 11:00 8,1 C 81 % 1018,8 hPa 2,1 l/m 0,0 km/h SO 5,0 C 8,1 C 0,0 km/h
16.04.2017 12:00 9,9 C 82 % 1018,4 hPa 0,5 l/m 0,0 km/h S-SO 7,0 C 9,9 C 0,0 km/h
16.04.2017 13:00 10,4 C 78 % 1018,4 hPa 0,0 l/m 0,0 km/h S-SW 6,7 C 10,4 C 0,0 km/h
16.04.2017 14:00 11,4 C 78 % 1018,2 hPa 0,5 l/m 0,0 km/h N 7,7 C 11,4 C 0,0 km/h
16.04.2017 15:00 8,6 C 75 % 1018,8 hPa 0,0 l/m 3,2 km/h SO 4,4 C 8,6 C 1,8 km/h
16.04.2017 16:00 7,5 C 83 % 1018,8 hPa 1,0 l/m 0,0 km/h O-SO 4,8 C 7,5 C 0,0 km/h
16.04.2017 17:00 8,1 C 83 % 1018,8 hPa 0,0 l/m 0,0 km/h SO 5,4 C 8,1 C 0,0 km/h
16.04.2017 18:00 9,3 C 81 % 1018,9 hPa 0,5 l/m 0,0 km/h SO 6,2 C 9,3 C 0,0 km/h
16.04.2017 19:00 7,5 C 83 % 1018,8 hPa 0,0 l/m 0,0 km/h SO 4,8 C 7,5 C 0,0 km/h
16.04.2017 20:00 6,9 C 85 % 992,7 hPa 0,0 l/m 0,0 km/h O-SO 4,6 C 6,9 C 0,0 km/h
16.04.2017 21:00 6,3 C 85 % 992,7 hPa 0,0 l/m 0,0 km/h O-SO 4,0 C 6,3 C 0,0 km/h
16.04.2017 22:00 6,3 C 84 % 992,5 hPa 0,0 l/m 0,0 km/h O-SO 3,8 C 6,3 C 0,0 km/h
16.04.2017 23:00 6,3 C 84 % 992,4 hPa 0,0 l/m 0,0 km/h O 3,8 C 6,3 C 0,0 km/h
Min-Datum _ 12.04.17 12.04.17 16.04.17 - 10.04.17 - 12.04.17 12.04.17 10.04.17
_ Min-Zeit 07:57 17:57 23:57 - 00:57 - 07:57 07:57 00:57
Minimum _ 1,0 C 26 % 992,4 hPa - 0,0 km/h - -1,7 C 1,0 C 0,0 km/h
Max-Datum _ 10.04.17 16.04.17 11.04.17 16.04.17 10.04.17 - 10.04.17 10.04.17 10.04.17
_ Max-Zeit 17:57 20:57 11:57 11:57 14:57 - 09:57 18:57 14:57
Maximum _ 27,3 C 85 % 1022,7 hPa 2,1 l/m 24,6 km/h
NW
- 10,8 C 27,1 C 13,7 km/h
NW
Durchschnitt _ 12,6 C 63 % 1016,1 hPa #5,2 l/m 1,4 km/h N 5,0 C 12,5 C 0,8 km/h
www.sexauwetter.de